sensor_id;sensor_type;location;lat;lon;timestamp;pressure;altitude;pressure_sealevel;temperature;humidity
77526;BME280;66627;29.424;-98.496;2024-01-15T00:00:18;99234.53;;;-2.73;49.54
77526;BME280;66627;29.424;-98.496;2024-01-15T00:02:45;99241.06;;;-2.26;49.30
77526;BME280;66627;29.424;-98.496;2024-01-15T00:05:09;99248.32;;;-1.22;48.86
77526;BME280;66627;29.424;-98.496;2024-01-15T00:07:38;99244.81;;;-1.17;47.50
77526;BME280;66627;29.424;-98.496;2024-01-15T00:10:00;99246.10;;;-1.49;48.16
77526;BME280;66627;29.424;-98.496;2024-01-15T00:12:24;99250.14;;;-1.98;48.63
77526;BME280;66627;29.424;-98.496;2024-01-15T00:14:51;99252.70;;;-2.16;49.49
77526;BME280;66627;29.424;-98.496;2024-01-15T00:17:16;99247.97;;;-2.05;48.25
77526;BME280;66627;29.424;-98.496;2024-01-15T00:19:41;99251.38;;;-2.55;49.71
77526;BME280;66627;29.424;-98.496;2024-01-15T00:22:07;99254.42;;;-2.55;50.45
77526;BME280;66627;29.424;-98.496;2024-01-15T00:24:33;99249.14;;;-2.61;49.85
77526;BME280;66627;29.424;-98.496;2024-01-15T00:26:57;99255.74;;;-2.10;49.12
77526;BME280;66627;29.424;-98.496;2024-01-15T00:29:24;99253.74;;;-2.54;50.42
77526;BME280;66627;29.424;-98.496;2024-01-15T00:31:49;99251.68;;;-2.19;49.13
77526;BME280;66627;29.424;-98.496;2024-01-15T00:34:14;99262.53;;;-3.56;52.29
77526;BME280;66627;29.424;-98.496;2024-01-15T00:36:39;99263.94;;;-3.70;52.31
77526;BME280;66627;29.424;-98.496;2024-01-15T00:39:04;99262.96;;;-3.65;51.70
77526;BME280;66627;29.424;-98.496;2024-01-15T00:41:30;99267.73;;;-3.56;52.23
77526;BME280;66627;29.424;-98.496;2024-01-15T00:43:56;99271.48;;;-4.07;53.52
77526;BME280;66627;29.424;-98.496;2024-01-15T00:46:20;99268.35;;;-3.85;53.19
77526;BME280;66627;29.424;-98.496;2024-01-15T00:48:56;99262.89;;;-2.87;52.31
77526;BME280;66627;29.424;-98.496;2024-01-15T00:51:11;99267.31;;;-3.45;52.30
77526;BME280;66627;29.424;-98.496;2024-01-15T00:53:35;99267.74;;;-3.98;53.11
77526;BME280;66627;29.424;-98.496;2024-01-15T00:56:01;99269.07;;;-3.53;53.46
77526;BME280;66627;29.424;-98.496;2024-01-15T00:58:27;99272.40;;;-3.72;55.16
77526;BME280;66627;29.424;-98.496;2024-01-15T01:00:57;99268.24;;;-4.23;55.55
77526;BME280;66627;29.424;-98.496;2024-01-15T01:03:17;99278.56;;;-3.36;53.69
77526;BME280;66627;29.424;-98.496;2024-01-15T01:05:44;99292.62;;;-3.56;54.29
77526;BME280;66627;29.424;-98.496;2024-01-15T01:08:09;99287.42;;;-4.17;55.70
77526;BME280;66627;29.424;-98.496;2024-01-15T01:10:34;99277.51;;;-3.28;53.52
77526;BME280;66627;29.424;-98.496;2024-01-15T01:12:59;99286.95;;;-2.83;53.12
77526;BME280;66627;29.424;-98.496;2024-01-15T01:15:25;99303.37;;;-3.75;54.53
77526;BME280;66627;29.424;-98.496;2024-01-15T01:17:50;99314.94;;;-2.99;53.61
77526;BME280;66627;29.424;-98.496;2024-01-15T01:20:16;99316.08;;;-3.00;54.18
77526;BME280;66627;29.424;-98.496;2024-01-15T01:22:41;99314.05;;;-3.51;54.16
77526;BME280;66627;29.424;-98.496;2024-01-15T01:25:07;99313.02;;;-3.97;55.75
77526;BME280;66627;29.424;-98.496;2024-01-15T01:27:32;99311.22;;;-4.02;57.57
77526;BME280;66627;29.424;-98.496;2024-01-15T01:29:56;99312.66;;;-3.75;56.86
77526;BME280;66627;29.424;-98.496;2024-01-15T01:32:21;99306.54;;;-4.14;57.06
77526;BME280;66627;29.424;-98.496;2024-01-15T01:34:48;99308.25;;;-4.07;58.25
77526;BME280;66627;29.424;-98.496;2024-01-15T01:37:13;99308.28;;;-4.60;58.40
77526;BME280;66627;29.424;-98.496;2024-01-15T01:39:38;99317.96;;;-3.27;56.58
77526;BME280;66627;29.424;-98.496;2024-01-15T01:42:04;99320.81;;;-3.80;56.76
77526;BME280;66627;29.424;-98.496;2024-01-15T01:44:29;99315.20;;;-2.71;55.82
77526;BME280;66627;29.424;-98.496;2024-01-15T01:46:54;99316.62;;;-4.34;58.70
77526;BME280;66627;29.424;-98.496;2024-01-15T01:49:20;99320.93;;;-3.70;57.89
77526;BME280;66627;29.424;-98.496;2024-01-15T01:51:46;99317.08;;;-3.30;56.91
77526;BME280;66627;29.424;-98.496;2024-01-15T01:54:12;99323.81;;;-3.13;57.01
77526;BME280;66627;29.424;-98.496;2024-01-15T01:56:37;99321.09;;;-3.16;56.19
77526;BME280;66627;29.424;-98.496;2024-01-15T01:59:03;99330.84;;;-3.30;56.39
77526;BME280;66627;29.424;-98.496;2024-01-15T02:01:27;99319.32;;;-3.83;57.29
77526;BME280;66627;29.424;-98.496;2024-01-15T02:03:55;99323.77;;;-3.12;56.46
77526;BME280;66627;29.424;-98.496;2024-01-15T02:06:17;99331.59;;;-2.55;56.76
77526;BME280;66627;29.424;-98.496;2024-01-15T02:08:44;99333.09;;;-2.89;56.68
77526;BME280;66627;29.424;-98.496;2024-01-15T02:11:08;99338.39;;;-3.02;57.79
77526;BME280;66627;29.424;-98.496;2024-01-15T02:13:33;99330.27;;;-4.70;59.63
77526;BME280;66627;29.424;-98.496;2024-01-15T02:15:59;99331.90;;;-4.55;59.28
77526;BME280;66627;29.424;-98.496;2024-01-15T02:18:24;99334.31;;;-4.97;60.28
77526;BME280;66627;29.424;-98.496;2024-01-15T02:20:51;99333.78;;;-4.61;60.48
77526;BME280;66627;29.424;-98.496;2024-01-15T02:23:15;99336.14;;;-5.37;61.14
77526;BME280;66627;29.424;-98.496;2024-01-15T02:25:42;99341.59;;;-4.75;61.26
77526;BME280;66627;29.424;-98.496;2024-01-15T02:28:07;99334.48;;;-4.71;61.77
77526;BME280;66627;29.424;-98.496;2024-01-15T02:30:32;99337.12;;;-5.25;62.69
77526;BME280;66627;29.424;-98.496;2024-01-15T02:32:58;99337.27;;;-5.01;62.29
77526;BME280;66627;29.424;-98.496;2024-01-15T02:35:22;99347.17;;;-4.84;61.07
77526;BME280;66627;29.424;-98.496;2024-01-15T02:37:48;99355.81;;;-4.84;61.04
77526;BME280;66627;29.424;-98.496;2024-01-15T02:40:14;99357.12;;;-4.68;61.32
77526;BME280;66627;29.424;-98.496;2024-01-15T02:42:39;99353.43;;;-4.51;61.25
77526;BME280;66627;29.424;-98.496;2024-01-15T02:45:05;99338.88;;;-4.26;60.79
77526;BME280;66627;29.424;-98.496;2024-01-15T02:47:29;99349.00;;;-4.29;61.12
77526;BME280;66627;29.424;-98.496;2024-01-15T02:49:57;99349.31;;;-4.63;62.03
77526;BME280;66627;29.424;-98.496;2024-01-15T02:52:20;99352.73;;;-4.57;60.71
77526;BME280;66627;29.424;-98.496;2024-01-15T02:54:46;99350.70;;;-4.72;61.07
77526;BME280;66627;29.424;-98.496;2024-01-15T02:57:11;99346.02;;;-5.14;61.53
77526;BME280;66627;29.424;-98.496;2024-01-15T02:59:36;99351.12;;;-5.66;62.39
77526;BME280;66627;29.424;-98.496;2024-01-15T03:02:02;99353.77;;;-5.14;61.19
77526;BME280;66627;29.424;-98.496;2024-01-15T03:04:28;99353.24;;;-4.48;62.13
77526;BME280;66627;29.424;-98.496;2024-01-15T03:06:54;99345.20;;;-4.23;59.34
77526;BME280;66627;29.424;-98.496;2024-01-15T03:09:19;99355.89;;;-4.37;60.38
77526;BME280;66627;29.424;-98.496;2024-01-15T03:11:46;99349.57;;;-4.47;59.06
77526;BME280;66627;29.424;-98.496;2024-01-15T03:14:11;99345.11;;;-5.28;60.70
77526;BME280;66627;29.424;-98.496;2024-01-15T03:16:35;99346.85;;;-4.55;59.84
77526;BME280;66627;29.424;-98.496;2024-01-15T03:19:02;99343.57;;;-4.15;58.94
77526;BME280;66627;29.424;-98.496;2024-01-15T03:21:28;99350.46;;;-4.82;60.70
77526;BME280;66627;29.424;-98.496;2024-01-15T03:23:51;99351.41;;;-4.38;59.19
77526;BME280;66627;29.424;-98.496;2024-01-15T03:26:18;99350.21;;;-5.53;61.50
77526;BME280;66627;29.424;-98.496;2024-01-15T03:28:43;99350.13;;;-5.51;61.73
77526;BME280;66627;29.424;-98.496;2024-01-15T03:31:08;99346.31;;;-5.32;60.98
77526;BME280;66627;29.424;-98.496;2024-01-15T03:33:33;99353.47;;;-4.80;58.56
77526;BME280;66627;29.424;-98.496;2024-01-15T03:36:00;99355.34;;;-5.64;60.42
77526;BME280;66627;29.424;-98.496;2024-01-15T03:38:27;99354.86;;;-4.74;60.13
77526;BME280;66627;29.424;-98.496;2024-01-15T03:40:50;99359.64;;;-4.87;60.95
77526;BME280;66627;29.424;-98.496;2024-01-15T03:43:17;99367.17;;;-4.17;58.01
77526;BME280;66627;29.424;-98.496;2024-01-15T03:45:42;99363.93;;;-5.06;59.68
77526;BME280;66627;29.424;-98.496;2024-01-15T03:48:07;99363.67;;;-4.89;59.02
77526;BME280;66627;29.424;-98.496;2024-01-15T03:50:32;99368.46;;;-4.65;58.39
77526;BME280;66627;29.424;-98.496;2024-01-15T03:52:58;99371.06;;;-5.14;59.26
77526;BME280;66627;29.424;-98.496;2024-01-15T03:55:23;99375.60;;;-5.32;59.82
77526;BME280;66627;29.424;-98.496;2024-01-15T03:57:49;99379.47;;;-5.08;60.02
77526;BME280;66627;29.424;-98.496;2024-01-15T04:00:15;99384.98;;;-6.52;60.53
77526;BME280;66627;29.424;-98.496;2024-01-15T04:02:40;99386.75;;;-5.63;59.91
77526;BME280;66627;29.424;-98.496;2024-01-15T04:05:06;99382.38;;;-6.29;60.48
77526;BME280;66627;29.424;-98.496;2024-01-15T04:07:31;99386.95;;;-6.72;61.86
77526;BME280;66627;29.424;-98.496;2024-01-15T04:09:57;99386.10;;;-6.29;61.80
77526;BME280;66627;29.424;-98.496;2024-01-15T04:12:21;99386.79;;;-4.72;59.77
77526;BME280;66627;29.424;-98.496;2024-01-15T04:14:48;99383.85;;;-6.21;61.70
77526;BME280;66627;29.424;-98.496;2024-01-15T04:17:13;99381.45;;;-5.71;60.42
77526;BME280;66627;29.424;-98.496;2024-01-15T04:19:37;99388.68;;;-6.07;62.68
77526;BME280;66627;29.424;-98.496;2024-01-15T04:22:04;99386.27;;;-5.86;61.13
77526;BME280;66627;29.424;-98.496;2024-01-15T04:24:33;99392.91;;;-6.28;61.86
77526;BME280;66627;29.424;-98.496;2024-01-15T04:26:54;99386.72;;;-6.35;63.79
77526;BME280;66627;29.424;-98.496;2024-01-15T04:29:20;99383.56;;;-5.93;63.54
77526;BME280;66627;29.424;-98.496;2024-01-15T04:31:45;99390.84;;;-5.35;61.61
77526;BME280;66627;29.424;-98.496;2024-01-15T04:34:11;99384.75;;;-5.53;62.40
77526;BME280;66627;29.424;-98.496;2024-01-15T04:36:40;99394.72;;;-5.09;60.92
77526;BME280;66627;29.424;-98.496;2024-01-15T04:39:02;99394.80;;;-4.72;59.02
77526;BME280;66627;29.424;-98.496;2024-01-15T04:41:26;99401.11;;;-5.94;61.17
77526;BME280;66627;29.424;-98.496;2024-01-15T04:43:59;99403.86;;;-5.57;60.81
77526;BME280;66627;29.424;-98.496;2024-01-15T04:46:17;99402.93;;;-5.29;60.82
77526;BME280;66627;29.424;-98.496;2024-01-15T04:48:43;99407.43;;;-5.66;60.24
77526;BME280;66627;29.424;-98.496;2024-01-15T04:51:10;99409.91;;;-5.05;60.44
77526;BME280;66627;29.424;-98.496;2024-01-15T04:53:35;99413.18;;;-5.39;59.81
77526;BME280;66627;29.424;-98.496;2024-01-15T04:55:59;99414.18;;;-5.59;60.61
77526;BME280;66627;29.424;-98.496;2024-01-15T04:58:26;99408.04;;;-5.05;59.53
77526;BME280;66627;29.424;-98.496;2024-01-15T05:00:51;99410.12;;;-5.66;60.59
77526;BME280;66627;29.424;-98.496;2024-01-15T05:03:16;99401.53;;;-5.28;60.19
77526;BME280;66627;29.424;-98.496;2024-01-15T05:05:49;99408.62;;;-5.69;60.58
77526;BME280;66627;29.424;-98.496;2024-01-15T05:08:07;99404.87;;;-5.55;61.50
77526;BME280;66627;29.424;-98.496;2024-01-15T05:10:32;99404.59;;;-5.88;60.79
77526;BME280;66627;29.424;-98.496;2024-01-15T05:12:59;99405.68;;;-5.88;60.15
77526;BME280;66627;29.424;-98.496;2024-01-15T05:15:23;99403.93;;;-5.52;60.78
77526;BME280;66627;29.424;-98.496;2024-01-15T05:17:49;99406.50;;;-6.42;61.31
77526;BME280;66627;29.424;-98.496;2024-01-15T05:20:13;99400.63;;;-5.98;61.99
77526;BME280;66627;29.424;-98.496;2024-01-15T05:22:42;99401.86;;;-6.80;63.18
77526;BME280;66627;29.424;-98.496;2024-01-15T05:25:06;99410.70;;;-6.16;61.39
77526;BME280;66627;29.424;-98.496;2024-01-15T05:27:31;99423.04;;;-7.06;62.58
77526;BME280;66627;29.424;-98.496;2024-01-15T05:29:57;99418.67;;;-7.11;63.33
77526;BME280;66627;29.424;-98.496;2024-01-15T05:32:21;99423.49;;;-6.50;61.62
77526;BME280;66627;29.424;-98.496;2024-01-15T05:34:46;99428.57;;;-6.18;61.58
77526;BME280;66627;29.424;-98.496;2024-01-15T05:37:12;99429.33;;;-5.36;59.91
77526;BME280;66627;29.424;-98.496;2024-01-15T05:39:38;99427.01;;;-6.99;62.23
77526;BME280;66627;29.424;-98.496;2024-01-15T05:42:04;99418.52;;;-5.84;61.50
77526;BME280;66627;29.424;-98.496;2024-01-15T05:44:29;99425.58;;;-5.97;60.80
77526;BME280;66627;29.424;-98.496;2024-01-15T05:46:55;99426.43;;;-5.65;59.60
77526;BME280;66627;29.424;-98.496;2024-01-15T05:49:19;99423.56;;;-5.47;60.21
77526;BME280;66627;29.424;-98.496;2024-01-15T05:51:45;99424.97;;;-5.44;60.11
77526;BME280;66627;29.424;-98.496;2024-01-15T05:54:10;99424.08;;;-5.77;59.58
77526;BME280;66627;29.424;-98.496;2024-01-15T05:56:35;99424.29;;;-4.67;57.58
77526;BME280;66627;29.424;-98.496;2024-01-15T05:59:01;99425.62;;;-5.97;59.94
77526;BME280;66627;29.424;-98.496;2024-01-15T06:01:29;99423.80;;;-6.17;60.53
77526;BME280;66627;29.424;-98.496;2024-01-15T06:03:53;99417.52;;;-5.31;58.96
77526;BME280;66627;29.424;-98.496;2024-01-15T06:06:19;99413.06;;;-6.19;59.50
77526;BME280;66627;29.424;-98.496;2024-01-15T06:08:44;99405.54;;;-6.05;60.01
77526;BME280;66627;29.424;-98.496;2024-01-15T06:11:09;99414.47;;;-5.77;59.64
77526;BME280;66627;29.424;-98.496;2024-01-15T06:13:36;99415.61;;;-5.43;58.07
77526;BME280;66627;29.424;-98.496;2024-01-15T06:15:59;99411.79;;;-5.27;58.17
77526;BME280;66627;29.424;-98.496;2024-01-15T06:18:26;99408.20;;;-5.09;58.32
77526;BME280;66627;29.424;-98.496;2024-01-15T06:20:50;99424.29;;;-5.90;58.83
77526;BME280;66627;29.424;-98.496;2024-01-15T06:23:15;99405.94;;;-5.54;58.26
77526;BME280;66627;29.424;-98.496;2024-01-15T06:25:42;99402.03;;;-5.94;58.96
77526;BME280;66627;29.424;-98.496;2024-01-15T06:28:06;99407.91;;;-4.98;56.97
77526;BME280;66627;29.424;-98.496;2024-01-15T06:30:32;99410.36;;;-4.98;57.43
77526;BME280;66627;29.424;-98.496;2024-01-15T06:32:57;99407.05;;;-5.48;57.58
77526;BME280;66627;29.424;-98.496;2024-01-15T06:37:47;99389.70;;;-6.06;58.57
77526;BME280;66627;29.424;-98.496;2024-01-15T06:40:14;99384.24;;;-5.78;57.67
77526;BME280;66627;29.424;-98.496;2024-01-15T06:42:41;99368.09;;;-5.70;58.52
77526;BME280;66627;29.424;-98.496;2024-01-15T06:45:05;99371.33;;;-5.71;57.71
77526;BME280;66627;29.424;-98.496;2024-01-15T06:47:29;99371.41;;;-5.60;58.32
77526;BME280;66627;29.424;-98.496;2024-01-15T06:49:55;99372.59;;;-7.03;60.10
77526;BME280;66627;29.424;-98.496;2024-01-15T06:52:21;99351.01;;;-6.08;59.03
77526;BME280;66627;29.424;-98.496;2024-01-15T06:54:47;99336.69;;;-5.43;58.77
77526;BME280;66627;29.424;-98.496;2024-01-15T06:57:13;99343.93;;;-6.07;60.07
77526;BME280;66627;29.424;-98.496;2024-01-15T06:59:38;99349.16;;;-6.75;61.58
77526;BME280;66627;29.424;-98.496;2024-01-15T07:02:03;99348.39;;;-7.16;60.38
77526;BME280;66627;29.424;-98.496;2024-01-15T07:04:34;99353.37;;;-6.90;61.72
77526;BME280;66627;29.424;-98.496;2024-01-15T07:06:55;99356.95;;;-6.35;60.11
77526;BME280;66627;29.424;-98.496;2024-01-15T07:09:19;99370.93;;;-6.81;61.20
77526;BME280;66627;29.424;-98.496;2024-01-15T07:11:47;99370.76;;;-7.05;60.67
77526;BME280;66627;29.424;-98.496;2024-01-15T07:14:13;99371.89;;;-7.15;61.67
77526;BME280;66627;29.424;-98.496;2024-01-15T07:16:36;99383.80;;;-7.44;62.36
77526;BME280;66627;29.424;-98.496;2024-01-15T07:19:02;99388.34;;;-6.67;60.83
77526;BME280;66627;29.424;-98.496;2024-01-15T07:21:26;99392.32;;;-6.83;61.27
77526;BME280;66627;29.424;-98.496;2024-01-15T07:23:51;99389.44;;;-7.26;61.67
77526;BME280;66627;29.424;-98.496;2024-01-15T07:26:18;99385.73;;;-6.21;59.71
77526;BME280;66627;29.424;-98.496;2024-01-15T07:28:44;99388.21;;;-7.48;61.02
77526;BME280;66627;29.424;-98.496;2024-01-15T07:31:11;99396.05;;;-7.17;61.91
77526;BME280;66627;29.424;-98.496;2024-01-15T07:33:35;99413.93;;;-7.09;61.26
77526;BME280;66627;29.424;-98.496;2024-01-15T07:36:01;99428.07;;;-6.65;61.27
77526;BME280;66627;29.424;-98.496;2024-01-15T07:38:25;99433.85;;;-6.93;60.41
77526;BME280;66627;29.424;-98.496;2024-01-15T07:40:51;99434.18;;;-5.81;58.81
77526;BME280;66627;29.424;-98.496;2024-01-15T07:43:16;99436.62;;;-7.38;61.72
77526;BME280;66627;29.424;-98.496;2024-01-15T07:45:41;99434.10;;;-7.16;61.98
77526;BME280;66627;29.424;-98.496;2024-01-15T07:48:07;99433.75;;;-6.99;61.07
77526;BME280;66627;29.424;-98.496;2024-01-15T07:50:32;99429.83;;;-6.55;61.30
77526;BME280;66627;29.424;-98.496;2024-01-15T07:52:58;99421.21;;;-7.91;61.46
77526;BME280;66627;29.424;-98.496;2024-01-15T07:55:24;99421.02;;;-7.69;62.28
77526;BME280;66627;29.424;-98.496;2024-01-15T07:57:50;99407.58;;;-7.17;61.61
77526;BME280;66627;29.424;-98.496;2024-01-15T08:00:16;99416.02;;;-6.97;61.31
77526;BME280;66627;29.424;-98.496;2024-01-15T08:02:40;99416.96;;;-6.62;61.25
77526;BME280;66627;29.424;-98.496;2024-01-15T08:05:06;99403.44;;;-6.79;59.81
77526;BME280;66627;29.424;-98.496;2024-01-15T08:07:32;99387.31;;;-6.69;60.22
77526;BME280;66627;29.424;-98.496;2024-01-15T08:09:56;99394.44;;;-6.82;59.68
77526;BME280;66627;29.424;-98.496;2024-01-15T08:12:22;99402.00;;;-7.21;60.24
77526;BME280;66627;29.424;-98.496;2024-01-15T08:14:48;99399.21;;;-6.16;59.67
77526;BME280;66627;29.424;-98.496;2024-01-15T08:17:14;99411.13;;;-6.75;60.59
77526;BME280;66627;29.424;-98.496;2024-01-15T08:19:39;99408.33;;;-6.73;60.40
77526;BME280;66627;29.424;-98.496;2024-01-15T08:22:04;99406.43;;;-6.48;59.24
77526;BME280;66627;29.424;-98.496;2024-01-15T08:24:30;99390.84;;;-6.56;59.93
77526;BME280;66627;29.424;-98.496;2024-01-15T08:26:55;99389.83;;;-6.84;61.02
77526;BME280;66627;29.424;-98.496;2024-01-15T08:29:22;99389.35;;;-7.37;61.16
77526;BME280;66627;29.424;-98.496;2024-01-15T08:31:52;99386.16;;;-7.15;60.81
77526;BME280;66627;29.424;-98.496;2024-01-15T08:36:37;99379.43;;;-5.87;58.64
77526;BME280;66627;29.424;-98.496;2024-01-15T08:39:03;99380.30;;;-6.85;60.48
77526;BME280;66627;29.424;-98.496;2024-01-15T08:41:28;99383.08;;;-7.02;60.95
77526;BME280;66627;29.424;-98.496;2024-01-15T08:43:53;99395.57;;;-6.78;59.83
77526;BME280;66627;29.424;-98.496;2024-01-15T08:46:19;99381.95;;;-6.19;59.55
77526;BME280;66627;29.424;-98.496;2024-01-15T08:48:44;99365.94;;;-6.01;58.70
77526;BME280;66627;29.424;-98.496;2024-01-15T08:51:11;99375.92;;;-6.07;57.89
77526;BME280;66627;29.424;-98.496;2024-01-15T08:53:38;99381.13;;;-5.91;57.08
77526;BME280;66627;29.424;-98.496;2024-01-15T08:56:02;99364.91;;;-6.47;57.69
77526;BME280;66627;29.424;-98.496;2024-01-15T08:58:29;99368.59;;;-6.72;58.83
77526;BME280;66627;29.424;-98.496;2024-01-15T09:00:54;99362.61;;;-6.87;59.70
77526;BME280;66627;29.424;-98.496;2024-01-15T09:03:18;99362.65;;;-6.97;59.63
77526;BME280;66627;29.424;-98.496;2024-01-15T09:08:09;99366.31;;;-7.23;59.74
77526;BME280;66627;29.424;-98.496;2024-01-15T09:10:35;99371.46;;;-6.91;59.15
77526;BME280;66627;29.424;-98.496;2024-01-15T09:13:00;99376.98;;;-6.92;58.38
77526;BME280;66627;29.424;-98.496;2024-01-15T09:15:24;99358.37;;;-6.69;58.33
77526;BME280;66627;29.424;-98.496;2024-01-15T09:17:50;99355.35;;;-7.79;59.11
77526;BME280;66627;29.424;-98.496;2024-01-15T09:20:17;99366.00;;;-6.84;58.79
77526;BME280;66627;29.424;-98.496;2024-01-15T09:22:41;99371.69;;;-7.41;60.43
77526;BME280;66627;29.424;-98.496;2024-01-15T09:25:08;99348.41;;;-7.89;60.72
77526;BME280;66627;29.424;-98.496;2024-01-15T09:27:33;99337.32;;;-7.31;60.10
77526;BME280;66627;29.424;-98.496;2024-01-15T09:29:58;99336.88;;;-7.03;58.69
77526;BME280;66627;29.424;-98.496;2024-01-15T09:32:23;99360.45;;;-7.52;60.23
77526;BME280;66627;29.424;-98.496;2024-01-15T09:34:49;99347.89;;;-8.25;59.98
77526;BME280;66627;29.424;-98.496;2024-01-15T09:37:15;99349.39;;;-8.17;61.22
77526;BME280;66627;29.424;-98.496;2024-01-15T09:39:39;99356.99;;;-7.24;59.77
77526;BME280;66627;29.424;-98.496;2024-01-15T09:42:06;99349.81;;;-7.95;59.80
77526;BME280;66627;29.424;-98.496;2024-01-15T09:44:31;99351.10;;;-7.30;59.56
77526;BME280;66627;29.424;-98.496;2024-01-15T09:46:58;99356.67;;;-7.02;59.00
77526;BME280;66627;29.424;-98.496;2024-01-15T09:49:32;99378.25;;;-7.18;58.16
77526;BME280;66627;29.424;-98.496;2024-01-15T09:51:48;99365.89;;;-6.82;58.11
77526;BME280;66627;29.424;-98.496;2024-01-15T09:54:13;99369.67;;;-7.11;57.90
77526;BME280;66627;29.424;-98.496;2024-01-15T09:56:39;99370.88;;;-7.33;58.20
77526;BME280;66627;29.424;-98.496;2024-01-15T09:59:04;99379.47;;;-8.35;60.72
77526;BME280;66627;29.424;-98.496;2024-01-15T10:01:30;99400.73;;;-7.43;58.84
77526;BME280;66627;29.424;-98.496;2024-01-15T10:03:55;99404.08;;;-6.86;57.96
77526;BME280;66627;29.424;-98.496;2024-01-15T10:06:22;99396.09;;;-8.18;60.12
77526;BME280;66627;29.424;-98.496;2024-01-15T10:08:48;99404.99;;;-7.17;58.44
77526;BME280;66627;29.424;-98.496;2024-01-15T10:11:12;99406.05;;;-7.55;59.01
77526;BME280;66627;29.424;-98.496;2024-01-15T10:13:39;99421.59;;;-7.16;58.95
77526;BME280;66627;29.424;-98.496;2024-01-15T10:16:03;99422.94;;;-7.25;58.73
77526;BME280;66627;29.424;-98.496;2024-01-15T10:20:54;99432.07;;;-7.12;57.85
77526;BME280;66627;29.424;-98.496;2024-01-15T10:23:21;99413.52;;;-6.55;56.16
77526;BME280;66627;29.424;-98.496;2024-01-15T10:25:45;99443.02;;;-7.34;57.92
77526;BME280;66627;29.424;-98.496;2024-01-15T10:28:10;99445.23;;;-6.48;56.62
77526;BME280;66627;29.424;-98.496;2024-01-15T10:30:35;99459.13;;;-6.91;58.43
77526;BME280;66627;29.424;-98.496;2024-01-15T10:33:03;99457.62;;;-6.60;57.50
77526;BME280;66627;29.424;-98.496;2024-01-15T10:35:29;99438.83;;;-7.73;58.77
77526;BME280;66627;29.424;-98.496;2024-01-15T10:37:51;99444.53;;;-6.51;57.32
77526;BME280;66627;29.424;-98.496;2024-01-15T10:40:20;99435.85;;;-6.49;56.82
77526;BME280;66627;29.424;-98.496;2024-01-15T10:42:43;99432.01;;;-5.66;55.72
77526;BME280;66627;29.424;-98.496;2024-01-15T10:45:09;99431.29;;;-6.28;55.59
77526;BME280;66627;29.424;-98.496;2024-01-15T10:47:33;99439.70;;;-5.70;54.63
77526;BME280;66627;29.424;-98.496;2024-01-15T10:50:00;99433.27;;;-7.38;57.83
77526;BME280;66627;29.424;-98.496;2024-01-15T10:52:24;99435.42;;;-6.44;56.65
77526;BME280;66627;29.424;-98.496;2024-01-15T10:54:52;99447.42;;;-7.02;57.55
77526;BME280;66627;29.424;-98.496;2024-01-15T10:57:15;99454.92;;;-7.36;59.01
77526;BME280;66627;29.424;-98.496;2024-01-15T10:59:41;99460.95;;;-8.17;61.04
77526;BME280;66627;29.424;-98.496;2024-01-15T11:02:07;99458.57;;;-8.74;62.94
77526;BME280;66627;29.424;-98.496;2024-01-15T11:04:34;99466.29;;;-9.10;63.74
77526;BME280;66627;29.424;-98.496;2024-01-15T11:06:57;99479.23;;;-8.37;63.44
77526;BME280;66627;29.424;-98.496;2024-01-15T11:09:23;99475.04;;;-7.86;62.40
77526;BME280;66627;29.424;-98.496;2024-01-15T11:11:53;99482.41;;;-7.13;60.52
77526;BME280;66627;29.424;-98.496;2024-01-15T11:14:35;99498.49;;;-6.94;60.34
77526;BME280;66627;29.424;-98.496;2024-01-15T11:16:54;99510.50;;;-7.68;59.95
77526;BME280;66627;29.424;-98.496;2024-01-15T11:19:04;99496.23;;;-8.04;61.65
77526;BME280;66627;29.424;-98.496;2024-01-15T11:21:35;99506.30;;;-8.08;61.84
77526;BME280;66627;29.424;-98.496;2024-01-15T11:23:56;99520.75;;;-8.11;62.25
77526;BME280;66627;29.424;-98.496;2024-01-15T11:26:32;99534.96;;;-9.11;63.62
77526;BME280;66627;29.424;-98.496;2024-01-15T11:28:50;99526.96;;;-9.09;63.66
77526;BME280;66627;29.424;-98.496;2024-01-15T11:31:15;99529.52;;;-8.34;62.68
77526;BME280;66627;29.424;-98.496;2024-01-15T11:33:38;99531.61;;;-9.37;65.56
77526;BME280;66627;29.424;-98.496;2024-01-15T11:36:03;99533.10;;;-7.73;62.94
77526;BME280;66627;29.424;-98.496;2024-01-15T11:38:28;99535.40;;;-8.26;62.86
77526;BME280;66627;29.424;-98.496;2024-01-15T11:40:53;99530.12;;;-8.49;63.30
77526;BME280;66627;29.424;-98.496;2024-01-15T11:43:19;99538.41;;;-8.34;62.88
77526;BME280;66627;29.424;-98.496;2024-01-15T11:45:44;99546.75;;;-7.97;62.60
77526;BME280;66627;29.424;-98.496;2024-01-15T11:48:13;99549.13;;;-7.73;61.96
77526;BME280;66627;29.424;-98.496;2024-01-15T11:50:40;99540.56;;;-7.16;61.19
77526;BME280;66627;29.424;-98.496;2024-01-15T11:53:03;99526.54;;;-7.81;62.49
77526;BME280;66627;29.424;-98.496;2024-01-15T11:55:28;99533.72;;;-7.25;61.14
77526;BME280;66627;29.424;-98.496;2024-01-15T11:57:52;99547.13;;;-7.35;60.80
77526;BME280;66627;29.424;-98.496;2024-01-15T12:00:18;99544.08;;;-6.87;60.54
77526;BME280;66627;29.424;-98.496;2024-01-15T12:02:44;99540.75;;;-7.72;60.95
77526;BME280;66627;29.424;-98.496;2024-01-15T12:05:15;99540.56;;;-7.54;61.37
77526;BME280;66627;29.424;-98.496;2024-01-15T12:07:33;99554.56;;;-6.90;60.05
77526;BME280;66627;29.424;-98.496;2024-01-15T12:10:00;99543.61;;;-6.84;59.90
77526;BME280;66627;29.424;-98.496;2024-01-15T12:12:30;99546.34;;;-6.80;60.20
77526;BME280;66627;29.424;-98.496;2024-01-15T12:14:51;99542.62;;;-6.34;58.93
77526;BME280;66627;29.424;-98.496;2024-01-15T12:17:18;99530.61;;;-7.33;59.15
77526;BME280;66627;29.424;-98.496;2024-01-15T12:19:41;99537.43;;;-6.46;59.30
77526;BME280;66627;29.424;-98.496;2024-01-15T12:22:07;99543.27;;;-6.54;57.98
77526;BME280;66627;29.424;-98.496;2024-01-15T12:24:32;99546.54;;;-6.85;58.68
77526;BME280;66627;29.424;-98.496;2024-01-15T12:26:58;99551.09;;;-6.87;58.94
77526;BME280;66627;29.424;-98.496;2024-01-15T12:29:24;99562.83;;;-5.98;58.33
77526;BME280;66627;29.424;-98.496;2024-01-15T12:31:50;99566.59;;;-7.58;59.44
77526;BME280;66627;29.424;-98.496;2024-01-15T12:34:14;99573.58;;;-7.42;59.40
77526;BME280;66627;29.424;-98.496;2024-01-15T12:36:41;99591.97;;;-7.93;62.09
77526;BME280;66627;29.424;-98.496;2024-01-15T12:39:10;99582.23;;;-8.04;62.15